Round Rock, Texas
Current Conditions -  °F | °C
As of 3:15 AM on Sunday 21 Dec 2014 (Local Time) from KEDC Reporting Station
Overcast Overcast  
Wind Chill: 46°   Ceiling: 1700
Heat Index: 48°   Visibility: 7mi
Dew Point: 48°   Wind: 5mph
Humidity: 100%   Direction: 160°SSE
Pressure: 30.14"   Gusts: NA
Location:  30.51°N, 97.68°W
Report Text: KEDC 210915Z AUTO 16004KT 7SM FEW009 OVC017 09/09 A3014 RMK AO2
Loading
Personal Weather Stations






























Interactive Weather Map New forecast layout! Learn more

10-Day Weather Forecast

Advertisements
Track Severe Weather on mobile